Time;durP1;ratioP1;P1;durP2;ratioP2;P2;SDS_P1;SDS_P2;PMS_P1;PMS_P2;Temp;Humidity;BMP_temperature;BMP_pressure;BME280_temperature;BME280_humidity;BME280_pressure;Samples;Min_cycle;Max_cycle;Signal;HPM_P1;HPM_P2
2022/01/22 00:01:57;;;;;;;10.77;4.20;;;5.80;99.90;;;;;;5060459;28;20628;-57
2022/01/22 00:04:25;;;;;;;15.67;3.83;;;5.80;99.90;;;;;;5076452;28;20291;-57
2022/01/22 00:06:54;;;;;;;10.67;4.10;;;6.00;99.90;;;;;;5074469;28;20291;-58
2022/01/22 00:09:48;;;;;;;11.33;3.63;;;5.90;99.90;;;;;;5074893;28;20382;-57
2022/01/22 00:12:27;;;;;;;8.27;3.67;;;6.10;99.90;;;;;;5072494;28;20281;-58
2022/01/22 00:14:54;;;;;;;7.77;3.60;;;6.10;99.90;;;;;;5074595;28;20206;-59
2022/01/22 00:17:21;;;;;;;6.83;3.10;;;6.10;99.90;;;;;;5075643;28;20195;-60
2022/01/22 00:19:48;;;;;;;9.00;3.57;;;6.20;99.90;;;;;;5078672;28;20357;-58
2022/01/22 00:22:15;;;;;;;10.50;3.53;;;6.10;99.90;;;;;;5060151;28;20213;-59
2022/01/22 00:24:42;;;;;;;5.10;3.23;;;6.20;99.90;;;;;;5073129;28;20362;-57
2022/01/22 00:27:13;;;;;;;5.20;3.57;;;6.00;99.90;;;;;;5063734;28;20198;-58
2022/01/22 00:29:40;;;;;;;10.20;3.80;;;6.00;99.90;;;;;;5077902;28;20398;-57
2022/01/22 00:32:07;;;;;;;7.87;3.43;;;6.00;99.90;;;;;;5071458;28;20306;-58
2022/01/22 00:34:34;;;;;;;7.93;3.33;;;6.10;99.90;;;;;;5073476;28;20484;-58
2022/01/22 00:37:01;;;;;;;7.77;2.93;;;6.10;99.90;;;;;;5077281;28;20209;-58
2022/01/22 00:39:29;;;;;;;9.40;3.87;;;6.00;99.90;;;;;;5080516;28;21027;-57
2022/01/22 00:41:56;;;;;;;9.03;3.80;;;6.10;99.90;;;;;;5079954;28;20561;-58
2022/01/22 00:44:23;;;;;;;7.40;3.80;;;6.10;99.90;;;;;;5061335;28;20260;-57
2022/01/22 00:46:50;;;;;;;7.53;3.60;;;6.20;99.90;;;;;;5075039;28;20237;-57
2022/01/22 00:49:17;;;;;;;8.77;4.07;;;6.10;99.90;;;;;;5072708;28;20207;-57
2022/01/22 00:51:44;;;;;;;5.33;3.70;;;6.10;99.90;;;;;;5059993;28;20257;-58
2022/01/22 00:54:11;;;;;;;7.20;3.83;;;6.10;99.90;;;;;;5074637;28;20215;-56
2022/01/22 00:56:37;;;;;;;7.33;4.10;;;6.20;99.90;;;;;;5074867;28;20650;-55
2022/01/22 00:59:04;;;;;;;8.57;4.30;;;6.10;99.90;;;;;;5072317;28;20342;-56
2022/01/22 01:01:31;;;;;;;10.37;4.83;;;6.20;99.90;;;;;;5075380;28;20197;-58
2022/01/22 01:04:02;;;;;;;7.83;4.60;;;6.10;99.90;;;;;;5071824;28;20207;-57
2022/01/22 01:06:29;;;;;;;10.90;4.63;;;6.00;99.90;;;;;;5074457;28;20226;-58
2022/01/22 01:08:59;;;;;;;11.70;4.93;;;6.00;99.90;;;;;;5058170;28;20225;-58
2022/01/22 01:11:27;;;;;;;9.93;4.43;;;6.10;99.90;;;;;;5073538;28;20245;-58
2022/01/22 01:13:58;;;;;;;7.97;4.30;;;6.10;99.90;;;;;;5055786;28;20285;-59
2022/01/22 01:33:10;;;;;;;6.70;4.90;;;6.00;99.90;;;;;;5035461;28;20334;-58
2022/01/22 01:35:39;;;;;;;9.57;4.57;;;6.10;99.90;;;;;;5072389;28;20209;-58
2022/01/22 01:38:07;;;;;;;7.83;5.10;;;6.30;99.90;;;;;;5070730;28;20984;-58
2022/01/22 01:40:38;;;;;;;11.90;5.33;;;6.30;99.90;;;;;;5074636;28;20194;-58
2022/01/22 01:43:25;;;;;;;10.20;5.20;;;6.20;99.90;;;;;;5073004;28;20302;-58
2022/01/22 01:45:52;;;;;;;7.73;4.77;;;6.30;99.90;;;;;;5071702;28;20199;-58
2022/01/22 01:48:41;;;;;;;6.63;4.70;;;6.30;99.90;;;;;;5068169;28;20203;-57
2022/01/22 01:51:09;;;;;;;9.17;4.97;;;6.20;99.90;;;;;;5071819;28;20236;-58
2022/01/22 01:54:24;;;;;;;9.40;4.63;;;6.20;99.90;;;;;;5072565;28;20919;-58
2022/01/22 01:59:16;;;;;;;7.97;4.97;;;6.40;99.90;;;;;;5073353;28;20196;-57
2022/01/22 02:01:43;;;;;;;7.33;5.00;;;6.50;99.90;;;;;;5071872;28;20241;-57
2022/01/22 02:04:13;;;;;;;7.50;5.40;;;6.40;99.90;;;;;;5070827;28;20202;-57
2022/01/22 02:06:40;;;;;;;9.77;5.50;;;6.30;99.90;;;;;;5076415;28;20301;-56
2022/01/22 02:09:09;;;;;;;10.63;6.23;;;6.40;99.90;;;;;;5080425;28;20219;-57
2022/01/22 02:11:40;;;;;;;11.60;6.03;;;6.50;99.90;;;;;;5067765;28;20259;-57
2022/01/22 02:23:31;;;;;;;17.07;5.60;;;6.40;99.90;;;;;;5078064;28;20202;-57
2022/01/22 02:25:13;;;;;;;14.37;6.40;;;6.10;99.90;;;;;;5075996;28;20288;-56
2022/01/22 02:27:40;;;;;;;9.87;6.30;;;6.00;99.90;;;;;;5073735;28;20323;-58
2022/01/22 02:30:07;;;;;;;8.57;5.93;;;6.10;99.90;;;;;;5073889;28;20213;-57
2022/01/22 02:33:04;;;;;;;11.63;5.93;;;6.20;99.90;;;;;;5076093;28;20222;-58
2022/01/22 02:35:41;;;;;;;12.13;6.50;;;6.10;99.90;;;;;;5073457;28;20232;-55
2022/01/22 02:38:15;;;;;;;12.17;6.93;;;6.00;99.90;;;;;;5075828;28;20292;-57
2022/01/22 02:40:46;;;;;;;7.13;6.10;;;6.20;99.90;;;;;;5076612;28;20238;-56
2022/01/22 02:43:13;;;;;;;6.27;5.63;;;6.00;99.90;;;;;;5074146;28;20241;-58
2022/01/22 02:45:42;;;;;;;10.63;6.50;;;6.00;99.90;;;;;;5071289;28;20274;-57
2022/01/22 02:48:09;;;;;;;10.40;6.27;;;6.10;99.90;;;;;;5072635;28;20329;-58
2022/01/22 02:50:37;;;;;;;12.07;7.03;;;6.10;99.90;;;;;;5076185;28;20324;-57
2022/01/22 02:53:06;;;;;;;11.90;6.20;;;6.00;99.90;;;;;;5077238;28;20863;-59
2022/01/22 02:55:33;;;;;;;7.47;6.67;;;6.00;99.90;;;;;;5076304;28;20194;-59
2022/01/22 02:58:01;;;;;;;11.67;7.30;;;6.10;99.90;;;;;;5076154;28;20197;-58
2022/01/22 03:00:28;;;;;;;14.73;9.93;;;6.30;99.90;;;;;;5057668;28;20209;-57
2022/01/22 03:02:55;;;;;;;14.17;7.57;;;6.20;99.90;;;;;;5073088;28;20346;-59
2022/01/22 03:05:23;;;;;;;10.63;7.50;;;6.30;99.90;;;;;;5072847;28;20206;-58
2022/01/22 03:07:53;;;;;;;14.63;7.60;;;6.30;99.90;;;;;;5074355;28;20205;-60
2022/01/22 03:10:24;;;;;;;11.47;7.63;;;6.20;99.90;;;;;;5071858;28;20682;-56
2022/01/22 03:13:09;;;;;;;14.53;8.07;;;6.20;99.90;;;;;;5056935;28;20313;-58
2022/01/22 03:15:55;;;;;;;12.80;7.87;;;6.20;99.90;;;;;;5068070;28;20203;-58
2022/01/22 03:21:15;;;;;;;18.83;9.37;;;6.10;99.90;;;;;;5074542;28;20198;-57
2022/01/22 03:29:18;;;;;;;14.13;9.20;;;6.10;99.90;;;;;;5070729;28;20267;-57
2022/01/22 03:31:47;;;;;;;17.83;9.70;;;6.20;99.90;;;;;;5070599;28;20295;-55
2022/01/22 03:34:14;;;;;;;15.23;9.00;;;6.00;99.90;;;;;;5072840;28;20392;-57
2022/01/22 03:36:41;;;;;;;16.17;10.93;;;6.10;99.90;;;;;;5070778;28;20294;-60
2022/01/22 03:39:09;;;;;;;18.57;11.03;;;6.20;99.90;;;;;;5071854;28;20202;-55
2022/01/22 03:41:36;;;;;;;19.33;10.60;;;6.30;99.90;;;;;;5072125;28;20233;-55
2022/01/22 03:44:05;;;;;;;20.67;10.73;;;6.20;99.90;;;;;;5068057;28;20318;-57
2022/01/22 03:46:32;;;;;;;19.33;10.83;;;6.10;99.90;;;;;;5069567;28;20307;-58
2022/01/22 03:48:59;;;;;;;22.30;10.80;;;6.20;99.90;;;;;;5075051;28;20216;-59
2022/01/22 03:51:26;;;;;;;18.80;11.07;;;6.30;99.90;;;;;;5070599;28;20293;-58
2022/01/22 03:53:53;;;;;;;22.07;12.13;;;6.30;99.90;;;;;;5067358;28;20320;-57
2022/01/22 03:56:20;;;;;;;17.10;11.00;;;6.30;99.90;;;;;;5071156;28;20210;-59
2022/01/22 03:58:47;;;;;;;20.87;12.00;;;6.30;99.90;;;;;;5067843;28;20208;-58
2022/01/22 04:04:01;;;;;;;17.40;11.40;;;6.50;99.90;;;;;;5071169;28;20696;-58
2022/01/22 04:09:07;;;;;;;17.40;11.27;;;6.40;99.90;;;;;;5071713;28;20720;-58
2022/01/22 04:11:38;;;;;;;17.40;11.63;;;6.50;99.90;;;;;;5072838;28;20278;-58
2022/01/22 04:14:12;;;;;;;17.53;11.47;;;6.40;99.90;;;;;;5071428;28;20309;-58
2022/01/22 04:16:47;;;;;;;19.70;12.50;;;6.30;99.90;;;;;;5055064;28;20659;-57
2022/01/22 04:24:52;;;;;;;17.33;13.07;;;6.30;99.90;;;;;;5054305;28;20825;-55
2022/01/22 04:27:23;;;;;;;19.47;12.90;;;6.30;99.90;;;;;;5056819;28;20251;-57
2022/01/22 04:29:52;;;;;;;20.13;11.80;;;6.40;99.90;;;;;;5057686;28;20255;-55
2022/01/22 04:32:18;;;;;;;21.57;12.33;;;6.50;99.90;;;;;;5069803;28;20227;-57
2022/01/22 04:34:45;;;;;;;21.67;12.20;;;6.70;99.90;;;;;;5073642;28;20262;-56
2022/01/22 04:37:13;;;;;;;21.07;11.70;;;6.50;99.90;;;;;;5070791;28;20197;-57
2022/01/22 04:39:40;;;;;;;19.10;12.30;;;6.50;99.90;;;;;;5069977;28;20263;-57
2022/01/22 04:42:07;;;;;;;22.70;13.30;;;6.40;99.90;;;;;;5071995;28;20247;-55
2022/01/22 04:44:41;;;;;;;21.70;13.73;;;6.40;99.90;;;;;;5069337;28;20194;-56
2022/01/22 04:55:03;;;;;;;24.03;11.80;;;6.60;99.90;;;;;;5070386;28;20202;-56
2022/01/22 04:57:32;;;;;;;24.63;12.30;;;6.50;99.90;;;;;;5069008;28;20392;-57
2022/01/22 04:59:59;;;;;;;24.13;12.10;;;6.40;99.90;;;;;;5070039;28;20208;-55
2022/01/22 05:02:26;;;;;;;18.07;12.10;;;6.40;99.90;;;;;;5069913;28;20381;-55
2022/01/22 05:04:53;;;;;;;22.67;12.03;;;6.50;99.90;;;;;;5067592;28;20217;-57
2022/01/22 05:07:20;;;;;;;18.57;12.00;;;6.40;99.90;;;;;;5052804;28;20668;-56
2022/01/22 05:09:47;;;;;;;19.73;11.67;;;6.50;99.90;;;;;;5066274;28;20232;-57
2022/01/22 05:12:14;;;;;;;22.53;11.10;;;6.50;99.90;;;;;;5071726;28;20291;-57
2022/01/22 05:14:41;;;;;;;20.13;11.80;;;6.40;99.90;;;;;;5067539;28;20247;-56
2022/01/22 05:17:08;;;;;;;24.80;11.83;;;6.50;99.90;;;;;;5068037;28;20669;-55
2022/01/22 05:19:47;;;;;;;18.83;11.53;;;6.60;99.90;;;;;;5069833;28;20287;-56
2022/01/22 05:24:57;;;;;;;19.70;12.03;;;6.50;99.90;;;;;;5068166;28;20194;-57
2022/01/22 05:32:55;;;;;;;20.80;11.23;;;6.60;99.90;;;;;;5069291;28;20280;-58
2022/01/22 05:38:12;;;;;;;22.30;11.60;;;6.60;99.90;;;;;;5037478;28;20658;-56
2022/01/22 05:40:39;;;;;;;18.37;11.10;;;6.50;99.90;;;;;;5076243;28;20197;-57
2022/01/22 05:43:06;;;;;;;20.60;10.83;;;6.60;99.90;;;;;;5074250;28;20298;-57
2022/01/22 05:45:33;;;;;;;17.67;10.90;;;6.70;99.90;;;;;;5053911;28;20242;-59
2022/01/22 05:47:59;;;;;;;26.10;12.10;;;6.70;99.90;;;;;;5074615;28;20300;-58
2022/01/22 05:50:32;;;;;;;22.10;11.23;;;6.70;99.90;;;;;;5072344;28;20324;-59
2022/01/22 05:53:04;;;;;;;20.57;11.10;;;6.80;99.90;;;;;;5074144;28;20219;-58
2022/01/22 06:00:43;;;;;;;19.73;11.83;;;6.40;99.90;;;;;;5075783;28;20722;-58
2022/01/22 06:03:10;;;;;;;19.73;13.10;;;6.40;99.90;;;;;;5074879;28;20197;-57
2022/01/22 06:05:37;;;;;;;19.07;11.13;;;6.40;99.90;;;;;;5075925;28;20293;-57
2022/01/22 06:08:04;;;;;;;23.00;12.60;;;6.60;99.90;;;;;;5079065;28;20405;-56
2022/01/22 06:10:33;;;;;;;22.43;11.10;;;6.60;99.90;;;;;;5077811;28;20292;-57
2022/01/22 06:13:13;;;;;;;24.23;12.03;;;6.60;99.90;;;;;;5072946;28;20422;-57
2022/01/22 06:15:40;;;;;;;17.30;11.17;;;6.50;99.90;;;;;;5074391;28;20208;-56
2022/01/22 06:18:07;;;;;;;17.87;11.43;;;6.40;99.90;;;;;;5079320;28;20294;-60
2022/01/22 06:20:34;;;;;;;18.80;11.90;;;6.50;99.90;;;;;;5075827;28;21808;-55
2022/01/22 06:23:02;;;;;;;26.90;11.70;;;6.60;99.90;;;;;;5073958;28;20951;-58
2022/01/22 06:25:29;;;;;;;17.73;10.70;;;6.60;99.90;;;;;;5072375;28;20293;-58
2022/01/22 06:27:56;;;;;;;18.23;9.97;;;6.80;99.90;;;;;;5072017;28;20203;-58
2022/01/22 06:30:23;;;;;;;19.27;11.07;;;6.80;99.90;;;;;;5071892;28;20209;-58
2022/01/22 06:32:55;;;;;;;20.27;9.60;;;6.90;99.90;;;;;;5076167;28;20298;-57
2022/01/22 06:35:22;;;;;;;18.57;9.27;;;6.90;99.90;;;;;;5074110;28;20638;-58
2022/01/22 06:37:48;;;;;;;19.63;9.27;;;7.00;99.90;;;;;;5079212;28;20234;-57
2022/01/22 06:42:42;;;;;;;20.67;9.17;;;6.90;99.90;;;;;;5075618;28;20209;-58
2022/01/22 06:45:14;;;;;;;21.03;9.47;;;7.00;99.90;;;;;;5077395;28;20194;-59
2022/01/22 06:47:41;;;;;;;18.23;8.57;;;7.10;99.90;;;;;;5079465;28;20227;-58
2022/01/22 06:50:08;;;;;;;13.50;7.30;;;7.10;99.90;;;;;;5075158;28;20654;-58
2022/01/22 06:52:37;;;;;;;16.57;7.63;;;7.00;99.90;;;;;;5081052;28;20666;-58
2022/01/22 06:55:05;;;;;;;13.87;6.90;;;7.00;99.90;;;;;;5079934;28;20310;-58
2022/01/22 06:57:32;;;;;;;12.37;6.70;;;7.00;99.90;;;;;;5078126;28;20230;-58
2022/01/22 06:59:59;;;;;;;12.33;6.60;;;7.10;99.90;;;;;;5078326;28;20238;-58
2022/01/22 07:02:26;;;;;;;16.13;6.97;;;7.10;99.90;;;;;;5072835;28;20361;-58
2022/01/22 07:04:53;;;;;;;17.97;7.63;;;7.10;99.90;;;;;;5076880;28;20577;-58
2022/01/22 07:07:19;;;;;;;15.50;6.80;;;7.10;99.90;;;;;;5079953;28;20219;-58
2022/01/22 07:09:46;;;;;;;13.60;7.00;;;7.10;99.90;;;;;;5077177;28;20643;-58
2022/01/22 07:12:13;;;;;;;15.07;7.83;;;7.00;99.90;;;;;;5075434;28;20740;-58
2022/01/22 07:14:41;;;;;;;11.87;7.00;;;7.00;99.90;;;;;;5072275;28;20210;-58
2022/01/22 07:17:08;;;;;;;13.13;7.60;;;7.10;99.90;;;;;;5059818;28;20210;-56
2022/01/22 07:19:40;;;;;;;18.13;7.50;;;7.10;99.90;;;;;;5074018;28;20201;-58
2022/01/22 07:22:32;;;;;;;15.83;7.80;;;7.10;99.90;;;;;;5073291;28;20731;-57
2022/01/22 07:24:57;;;;;;;13.33;7.10;;;7.10;99.90;;;;;;5070886;28;20306;-58
2022/01/22 07:27:24;;;;;;;14.57;7.20;;;7.20;99.90;;;;;;5071502;28;20290;-57
2022/01/22 07:29:51;;;;;;;14.97;7.70;;;7.30;99.90;;;;;;5070854;28;20238;-57
2022/01/22 07:32:28;;;;;;;14.53;7.13;;;7.30;99.90;;;;;;5074030;28;20229;-59
2022/01/22 07:34:55;;;;;;;16.80;8.20;;;7.20;99.90;;;;;;5071811;28;20304;-58
2022/01/22 07:37:22;;;;;;;14.73;7.53;;;7.20;99.90;;;;;;5076347;28;20810;-58
2022/01/22 07:39:49;;;;;;;19.20;7.23;;;7.20;99.90;;;;;;5075798;28;20230;-58
2022/01/22 07:42:16;;;;;;;11.40;6.33;;;7.20;99.90;;;;;;5075243;28;20582;-58
2022/01/22 07:44:43;;;;;;;11.37;6.37;;;7.20;99.90;;;;;;5079035;28;20601;-56
2022/01/22 07:47:11;;;;;;;14.40;7.50;;;7.20;99.90;;;;;;5077388;28;20949;-58
2022/01/22 07:49:38;;;;;;;14.60;7.20;;;7.00;99.90;;;;;;5068747;28;20283;-58
2022/01/22 07:52:05;;;;;;;16.73;7.73;;;7.20;99.90;;;;;;5052069;28;20923;-59
2022/01/22 07:54:33;;;;;;;15.73;7.27;;;7.10;99.90;;;;;;5071172;28;20725;-58
2022/01/22 07:57:02;;;;;;;15.90;6.23;;;7.10;99.90;;;;;;5071234;28;20870;-57
2022/01/22 07:59:35;;;;;;;13.53;7.00;;;7.10;99.90;;;;;;5071482;28;20232;-58
2022/01/22 08:02:02;;;;;;;18.00;8.37;;;7.00;99.90;;;;;;5069336;28;20670;-57
2022/01/22 08:04:29;;;;;;;19.40;8.47;;;6.90;99.90;;;;;;5069619;28;20205;-58
2022/01/22 08:06:59;;;;;;;13.37;8.10;;;6.90;99.90;;;;;;5070321;28;20618;-58
2022/01/22 08:09:26;;;;;;;15.83;8.10;;;7.00;99.90;;;;;;5054336;28;20706;-57
2022/01/22 08:11:53;;;;;;;17.87;8.70;;;6.90;99.90;;;;;;5074653;28;20318;-58
2022/01/22 08:14:20;;;;;;;13.03;7.57;;;6.90;99.90;;;;;;5074533;28;20255;-57
2022/01/22 08:16:49;;;;;;;14.13;7.50;;;6.80;99.90;;;;;;5074023;28;20257;-58
2022/01/22 08:19:17;;;;;;;20.60;8.60;;;6.70;99.90;;;;;;5067140;28;20293;-58
2022/01/22 08:21:45;;;;;;;17.07;8.90;;;6.70;99.90;;;;;;5067331;28;20193;-59
2022/01/22 08:24:14;;;;;;;15.10;8.37;;;6.80;99.90;;;;;;5069026;28;20343;-57
2022/01/22 08:26:49;;;;;;;13.30;7.60;;;6.90;99.90;;;;;;5069979;28;21349;-58
2022/01/22 08:29:16;;;;;;;13.13;7.90;;;6.80;99.90;;;;;;5067572;28;20360;-58
2022/01/22 08:32:02;;;;;;;22.50;7.83;;;6.80;99.90;;;;;;5074854;28;20201;-57
2022/01/22 08:37:15;;;;;;;14.73;7.17;;;6.80;99.90;;;;;;5072425;28;20290;-58
2022/01/22 08:39:43;;;;;;;14.77;6.93;;;6.80;99.90;;;;;;5070015;28;20252;-57
2022/01/22 08:42:10;;;;;;;12.80;6.93;;;6.80;99.90;;;;;;5069914;28;20200;-57
2022/01/22 08:44:37;;;;;;;16.10;6.73;;;6.90;99.90;;;;;;5069907;28;20327;-57
2022/01/22 08:47:04;;;;;;;9.90;5.50;;;6.90;99.90;;;;;;5074412;28;20580;-58
2022/01/22 08:49:31;;;;;;;12.13;6.20;;;7.00;99.90;;;;;;5068377;28;20233;-57
2022/01/22 08:52:01;;;;;;;12.30;6.40;;;7.10;99.90;;;;;;5051361;28;20221;-58
2022/01/22 08:54:27;;;;;;;12.40;6.20;;;7.20;99.90;;;;;;5051933;28;20279;-58
2022/01/22 08:56:54;;;;;;;9.93;5.50;;;7.20;99.90;;;;;;5049914;28;21008;-57
2022/01/22 08:59:21;;;;;;;11.13;5.93;;;7.10;99.90;;;;;;5051783;28;20671;-58
2022/01/22 09:01:48;;;;;;;6.93;4.87;;;7.20;99.90;;;;;;5054038;28;20295;-58
2022/01/22 09:04:16;;;;;;;11.93;4.80;;;7.30;99.90;;;;;;5030135;28;21176;-58
2022/01/22 09:06:43;;;;;;;10.07;4.93;;;7.30;99.90;;;;;;5050533;28;21069;-56
2022/01/22 09:09:11;;;;;;;12.57;5.70;;;7.30;99.90;;;;;;5048490;28;20425;-59
2022/01/22 09:11:41;;;;;;;8.87;5.00;;;7.20;99.90;;;;;;5049372;28;20305;-56
2022/01/22 09:14:10;;;;;;;8.90;4.73;;;7.30;99.90;;;;;;5053847;28;20224;-57
2022/01/22 09:16:37;;;;;;;9.23;5.87;;;7.20;99.90;;;;;;5045334;28;20549;-60
2022/01/22 09:19:09;;;;;;;11.93;5.03;;;7.40;99.90;;;;;;5047758;28;20210;-56
2022/01/22 09:21:42;;;;;;;9.30;5.87;;;7.40;99.90;;;;;;5050433;28;20238;-57
2022/01/22 09:24:10;;;;;;;9.40;4.70;;;7.30;99.90;;;;;;5050089;28;20264;-58
2022/01/22 09:26:37;;;;;;;9.97;4.97;;;7.40;99.90;;;;;;5051797;28;20266;-58
2022/01/22 09:29:05;;;;;;;14.40;5.93;;;7.40;99.90;;;;;;5046444;28;20314;-58
2022/01/22 09:31:33;;;;;;;10.73;5.10;;;7.20;99.90;;;;;;5051762;28;20268;-58
2022/01/22 09:34:01;;;;;;;12.37;5.00;;;7.20;99.90;;;;;;5050924;28;20223;-56
2022/01/22 09:36:31;;;;;;;10.43;5.17;;;7.50;99.90;;;;;;5053675;28;20337;-58
2022/01/22 09:38:59;;;;;;;10.87;5.30;;;7.50;99.90;;;;;;5039554;28;20193;-59
2022/01/22 09:41:28;;;;;;;9.33;4.73;;;7.50;99.90;;;;;;5053297;28;20229;-58
2022/01/22 09:43:56;;;;;;;10.80;4.73;;;7.60;99.90;;;;;;5046043;28;20230;-58
2022/01/22 09:46:26;;;;;;;6.50;4.10;;;7.60;99.90;;;;;;5051383;28;20212;-59
2022/01/22 09:48:54;;;;;;;13.50;4.60;;;7.70;99.90;;;;;;5049639;28;20208;-57
2022/01/22 09:51:21;;;;;;;9.80;5.03;;;7.60;99.90;;;;;;5064353;28;21014;-59
2022/01/22 09:53:48;;;;;;;9.73;4.90;;;7.60;99.90;;;;;;5070803;28;20293;-58
2022/01/22 09:56:21;;;;;;;10.83;5.17;;;7.70;99.90;;;;;;5072196;28;20204;-58
2022/01/22 09:58:49;;;;;;;9.20;4.80;;;7.70;99.90;;;;;;5071993;28;20352;-59
2022/01/22 10:01:27;;;;;;;8.20;5.17;;;7.70;99.90;;;;;;5070157;28;20188;-57
2022/01/22 10:03:58;;;;;;;9.37;5.50;;;7.60;99.90;;;;;;5051383;28;20202;-59
2022/01/22 10:06:34;;;;;;;11.27;5.83;;;7.60;99.90;;;;;;5073636;28;20203;-57
2022/01/22 10:09:13;;;;;;;15.43;6.10;;;7.60;99.90;;;;;;5067781;28;20315;-59
2022/01/22 10:11:41;;;;;;;7.97;4.90;;;7.60;99.90;;;;;;5071724;28;20398;-58
2022/01/22 10:14:09;;;;;;;13.10;6.17;;;7.50;99.90;;;;;;5067770;28;20218;-58
2022/01/22 10:16:38;;;;;;;14.10;5.97;;;7.60;99.90;;;;;;5068432;28;20335;-58
2022/01/22 10:19:18;;;;;;;12.43;5.90;;;7.60;99.90;;;;;;5064538;28;20214;-57
2022/01/22 10:22:04;;;;;;;9.37;5.43;;;7.60;99.90;;;;;;5068818;28;21495;-57
2022/01/22 10:24:46;;;;;;;10.00;6.17;;;7.70;99.90;;;;;;5067635;28;20296;-58
2022/01/22 10:30:00;;;;;;;12.90;5.60;;;7.60;99.90;;;;;;5070812;28;20209;-56
2022/01/22 10:32:45;;;;;;;9.10;5.43;;;7.80;99.90;;;;;;5071202;28;20829;-59
2022/01/22 10:35:18;;;;;;;10.93;4.83;;;7.90;99.90;;;;;;5067307;28;20218;-58
2022/01/22 10:38:05;;;;;;;9.77;5.70;;;8.00;99.90;;;;;;5048877;28;20293;-64
2022/01/22 10:40:37;;;;;;;14.60;5.67;;;7.80;99.90;;;;;;5070781;28;20193;-63
2022/01/22 10:43:32;;;;;;;9.93;5.40;;;7.70;99.90;;;;;;5068534;28;20237;-65
2022/01/22 10:48:40;;;;;;;12.10;5.97;;;7.80;99.90;;;;;;5069904;28;20279;-59
2022/01/22 10:51:15;;;;;;;15.57;6.03;;;7.80;99.90;;;;;;5067084;28;20332;-56
2022/01/22 10:53:49;;;;;;;9.07;5.90;;;7.80;99.90;;;;;;5066649;28;20292;-58
2022/01/22 10:56:22;;;;;;;10.77;6.63;;;7.80;99.90;;;;;;5069581;28;20196;-58
2022/01/22 10:59:09;;;;;;;10.43;5.83;;;7.60;99.90;;;;;;5067854;28;20194;-58
2022/01/22 11:01:51;;;;;;;11.37;6.10;;;7.60;99.90;;;;;;5061240;28;20886;-58
2022/01/22 11:04:29;;;;;;;13.67;6.67;;;7.70;99.90;;;;;;5080253;28;20207;-58
2022/01/22 11:06:58;;;;;;;10.53;6.23;;;7.70;99.90;;;;;;5072920;28;20693;-57
2022/01/22 11:09:46;;;;;;;10.80;5.70;;;7.80;99.90;;;;;;5080900;28;20242;-58
2022/01/22 11:12:13;;;;;;;12.37;6.57;;;7.70;99.90;;;;;;5077110;28;20205;-58
2022/01/22 11:14:42;;;;;;;11.53;6.80;;;7.80;99.90;;;;;;5080534;28;20218;-59
2022/01/22 11:17:09;;;;;;;11.63;6.50;;;7.80;99.90;;;;;;5078445;28;20227;-58
2022/01/22 11:19:39;;;;;;;16.60;6.90;;;7.70;99.90;;;;;;5072758;28;20692;-57
2022/01/22 11:22:12;;;;;;;12.50;6.10;;;7.80;99.90;;;;;;5079279;28;20215;-57
2022/01/22 11:24:41;;;;;;;12.37;6.37;;;7.80;99.90;;;;;;5075534;28;20201;-56
2022/01/22 11:27:11;;;;;;;14.87;7.43;;;7.80;99.90;;;;;;5082318;28;20545;-59
2022/01/22 11:29:56;;;;;;;12.40;6.60;;;7.80;99.90;;;;;;5080110;28;20218;-57
2022/01/22 11:32:44;;;;;;;22.43;8.17;;;7.70;99.90;;;;;;5083280;28;20660;-59
2022/01/22 11:35:13;;;;;;;10.57;7.13;;;7.70;99.90;;;;;;5079588;28;20222;-57
2022/01/22 11:37:45;;;;;;;9.20;6.37;;;7.80;99.90;;;;;;5080357;28;20474;-58
2022/01/22 11:40:21;;;;;;;10.33;7.47;;;7.70;99.90;;;;;;5080021;28;20193;-59
2022/01/22 11:45:29;;;;;;;9.70;6.93;;;7.80;99.90;;;;;;5083804;28;20769;-59
2022/01/22 11:48:26;;;;;;;8.90;6.90;;;7.90;99.90;;;;;;5079540;28;20615;-57
2022/01/22 11:51:15;;;;;;;15.33;7.10;;;7.90;99.90;;;;;;5079430;28;20759;-57
2022/01/22 11:53:54;;;;;;;10.57;6.77;;;7.90;99.90;;;;;;5079819;28;20305;-58
2022/01/22 11:56:28;;;;;;;14.10;7.53;;;7.90;99.90;;;;;;5061521;28;20222;-58
2022/01/22 11:59:04;;;;;;;11.10;7.33;;;7.90;99.90;;;;;;5077490;28;20199;-58
2022/01/22 12:01:40;;;;;;;12.53;7.37;;;8.00;99.90;;;;;;5062953;28;20211;-59
2022/01/22 12:04:10;;;;;;;12.97;7.73;;;7.90;99.90;;;;;;5078093;28;20217;-57
2022/01/22 12:07:00;;;;;;;13.57;7.50;;;7.80;99.90;;;;;;5078602;28;20580;-58
2022/01/22 12:15:20;;;;;;;18.20;9.20;;;8.00;99.90;;;;;;5077297;28;20646;-59
2022/01/22 12:17:49;;;;;;;18.07;9.83;;;8.00;99.90;;;;;;5076118;28;20200;-57
2022/01/22 12:23:39;;;;;;;14.53;9.07;;;7.90;99.90;;;;;;5044325;28;20442;-58
2022/01/22 12:26:06;;;;;;;12.93;9.27;;;8.00;99.90;;;;;;5059859;28;20209;-59
2022/01/22 12:28:41;;;;;;;12.43;9.60;;;8.00;99.90;;;;;;5075417;28;20270;-58
2022/01/22 12:31:17;;;;;;;19.73;9.93;;;7.90;99.90;;;;;;5081298;28;20630;-59
2022/01/22 12:33:53;;;;;;;16.77;10.03;;;7.80;99.90;;;;;;5063850;28;20192;-57
2022/01/22 12:36:36;;;;;;;16.47;10.20;;;7.70;99.90;;;;;;5082407;28;20245;-57
2022/01/22 12:39:08;;;;;;;20.20;10.87;;;7.80;99.90;;;;;;5080234;28;20868;-58
2022/01/22 12:44:08;;;;;;;16.00;10.90;;;7.70;99.90;;;;;;5062671;28;20199;-59
2022/01/22 12:46:52;;;;;;;19.80;9.90;;;7.70;99.90;;;;;;5073971;28;20286;-57
2022/01/22 12:49:21;;;;;;;15.03;9.13;;;7.60;99.90;;;;;;5079650;28;20214;-57
2022/01/22 12:51:57;;;;;;;16.63;9.93;;;7.60;99.90;;;;;;5073547;28;20264;-57
2022/01/22 12:54:37;;;;;;;17.37;10.73;;;7.60;99.90;;;;;;5091481;28;20288;-57
2022/01/22 12:57:19;;;;;;;20.90;11.20;;;7.60;99.90;;;;;;5093477;28;20211;-58
2022/01/22 13:00:11;;;;;;;18.00;11.00;;;7.50;99.90;;;;;;5089641;28;20444;-57
2022/01/22 13:02:41;;;;;;;18.73;10.37;;;7.50;99.90;;;;;;5092421;28;20263;-57
2022/01/22 13:05:10;;;;;;;17.53;11.23;;;7.60;99.90;;;;;;5074508;28;20205;-58
2022/01/22 13:07:46;;;;;;;19.93;11.80;;;7.50;99.90;;;;;;5081281;28;20209;-57
2022/01/22 13:10:13;;;;;;;20.97;11.13;;;7.60;99.90;;;;;;5092321;28;20257;-58
2022/01/22 13:12:46;;;;;;;22.37;12.60;;;7.70;99.90;;;;;;5069026;28;20251;-58
2022/01/22 13:15:17;;;;;;;20.00;11.50;;;7.70;99.90;;;;;;5086266;28;20321;-59
2022/01/22 13:17:51;;;;;;;19.40;11.90;;;7.80;99.90;;;;;;5084305;28;20229;-58
2022/01/22 13:20:20;;;;;;;20.17;12.03;;;7.80;99.90;;;;;;5082565;28;20205;-58
2022/01/22 13:22:47;;;;;;;22.33;12.60;;;7.80;99.90;;;;;;5086958;28;20245;-59
2022/01/22 13:25:16;;;;;;;16.53;11.93;;;7.90;99.90;;;;;;5085848;28;20663;-56
2022/01/22 13:27:57;;;;;;;21.03;11.90;;;7.60;99.90;;;;;;5085160;28;20610;-57
2022/01/22 13:30:41;;;;;;;17.40;11.67;;;7.60;99.90;;;;;;5087814;28;20680;-59
2022/01/22 13:34:09;;;;;;;20.27;12.80;;;7.60;99.90;;;;;;5092230;28;20592;-57
2022/01/22 13:49:53;;;;;;;22.13;13.50;;;7.80;99.90;;;;;;5085593;28;20287;-59
2022/01/22 13:52:22;;;;;;;21.07;13.43;;;7.80;99.90;;;;;;5094004;28;20223;-59
2022/01/22 13:54:51;;;;;;;21.63;14.07;;;7.80;99.90;;;;;;5094267;28;20547;-58
2022/01/22 13:57:21;;;;;;;22.60;13.77;;;7.80;99.90;;;;;;5076821;28;20378;-59
2022/01/22 13:59:52;;;;;;;20.40;13.07;;;7.80;99.90;;;;;;5096231;28;20673;-59
2022/01/22 14:04:55;;;;;;;20.10;13.03;;;7.70;99.90;;;;;;5096661;28;20297;-58
2022/01/22 14:07:26;;;;;;;21.77;14.73;;;7.50;99.90;;;;;;5065728;28;20639;-59
2022/01/22 14:10:05;;;;;;;19.47;13.97;;;7.50;99.90;;;;;;5095644;28;20229;-59
2022/01/22 14:12:44;;;;;;;23.43;13.87;;;7.50;99.90;;;;;;5065946;28;20202;-58
2022/01/22 14:15:16;;;;;;;22.17;13.80;;;7.40;99.90;;;;;;5097638;28;20804;-59
2022/01/22 14:17:55;;;;;;;27.77;13.43;;;7.50;99.90;;;;;;5098464;28;20716;-58
2022/01/22 14:20:27;;;;;;;23.70;13.83;;;7.50;99.90;;;;;;5096899;28;20186;-59
2022/01/22 14:23:25;;;;;;;21.50;13.77;;;7.60;99.90;;;;;;5096475;28;20196;-56
2022/01/22 14:26:01;;;;;;;21.73;13.30;;;7.60;99.90;;;;;;5064548;28;20242;-58
2022/01/22 14:28:45;;;;;;;20.97;14.00;;;7.60;99.90;;;;;;5096979;28;20271;-56
2022/01/22 14:31:33;;;;;;;21.00;14.10;;;7.50;99.90;;;;;;5099012;28;20199;-58
2022/01/22 14:34:04;;;;;;;24.07;13.83;;;7.60;99.90;;;;;;5097996;28;20315;-57
2022/01/22 14:36:37;;;;;;;21.63;14.03;;;7.60;99.90;;;;;;5096946;28;20253;-58
2022/01/22 14:39:28;;;;;;;22.27;15.17;;;7.60;99.90;;;;;;5097539;28;20687;-57
2022/01/22 14:44:42;;;;;;;22.17;14.80;;;7.70;99.90;;;;;;5094830;28;20626;-57
2022/01/22 14:47:28;;;;;;;22.30;14.53;;;7.60;99.90;;;;;;5098542;28;20641;-58
2022/01/22 14:50:06;;;;;;;22.30;15.03;;;7.50;99.90;;;;;;5089751;28;20561;-59
2022/01/22 14:52:32;;;;;;;20.43;15.50;;;7.50;99.90;;;;;;5069038;28;20381;-57
2022/01/22 14:55:03;;;;;;;20.07;13.90;;;7.40;99.90;;;;;;5083889;28;20775;-58
2022/01/22 14:57:32;;;;;;;20.30;14.07;;;7.40;99.90;;;;;;5085841;28;20202;-58
2022/01/22 15:00:06;;;;;;;27.40;15.00;;;7.30;99.90;;;;;;5086374;28;20662;-61
2022/01/22 15:02:33;;;;;;;20.73;13.77;;;7.40;99.90;;;;;;5086704;28;20208;-58